Time,TemperatureF,DewpointF,PressureIn,WindDirection,WindDirectionDegrees,WindSpeedMPH,WindSpeedGustMPH,Humidity,HourlyPrecipIn,Conditions,Clouds,dailyrainin,SoftwareType,DateUTC
2013-03-17 00:03:00,29.0,13.0,29.81,NNW,330,7.0,13.0,51,0.00,,,0.00,,2013-03-17 04:03:00,
2013-03-17 00:13:00,29.0,13.0,29.81,NNW,330,7.0,13.0,51,0.00,,,0.00,,2013-03-17 04:13:00,
2013-03-17 00:23:00,29.0,14.0,29.82,NNW,344,2.0,10.0,52,0.00,,,0.00,,2013-03-17 04:23:00,
2013-03-17 00:32:00,28.0,13.0,29.81,NW,323,6.0,11.0,53,0.00,,,0.00,,2013-03-17 04:32:00,
2013-03-17 00:43:00,28.0,13.0,29.81,NW,323,6.0,11.0,53,0.00,,,0.00,,2013-03-17 04:43:00,
2013-03-17 00:53:00,28.0,13.0,29.82,NNW,334,9.0,14.0,52,0.00,,,0.00,,2013-03-17 04:53:00,
2013-03-17 01:03:00,28.0,14.0,29.82,NNW,343,8.0,16.0,54,0.00,,,0.00,,2013-03-17 05:03:00,
2013-03-17 01:12:00,28.0,14.0,29.82,NNW,343,8.0,16.0,54,0.00,,,0.00,,2013-03-17 05:12:00,
2013-03-17 01:22:00,27.0,13.0,29.83,NNW,335,8.0,14.0,54,0.00,,,0.00,,2013-03-17 05:22:00,
2013-03-17 01:32:00,27.0,13.0,29.83,NNW,348,6.0,13.0,56,0.00,,,0.00,,2013-03-17 05:32:00,
2013-03-17 01:42:00,27.0,13.0,29.83,NNW,348,6.0,13.0,56,0.00,,,0.00,,2013-03-17 05:42:00,
2013-03-17 01:52:00,27.0,13.0,29.83,NNW,328,7.0,16.0,55,0.00,,,0.00,,2013-03-17 05:52:00,
2013-03-17 02:02:00,26.0,12.0,29.83,NW,314,10.0,14.0,55,0.00,,,0.00,,2013-03-17 06:02:00,
2013-03-17 02:12:00,26.0,12.0,29.83,NW,314,10.0,14.0,55,0.00,,,0.00,,2013-03-17 06:12:00,
2013-03-17 02:22:00,26.0,13.0,29.83,NNW,337,7.0,13.0,57,0.00,,,0.00,,2013-03-17 06:22:00,
2013-03-17 02:32:00,25.0,11.0,29.83,North,355,10.0,15.0,54,0.00,,,0.00,,2013-03-17 06:32:00,
2013-03-17 02:42:00,25.0,11.0,29.83,North,355,10.0,15.0,54,0.00,,,0.00,,2013-03-17 06:42:00,
2013-03-17 02:52:00,25.0,11.0,29.83,NNW,334,8.0,13.0,55,0.00,,,0.00,,2013-03-17 06:52:00,
2013-03-17 03:02:00,25.0,12.0,29.83,NNW,346,7.0,13.0,57,0.00,,,0.00,,2013-03-17 07:02:00,
2013-03-17 03:12:00,25.0,12.0,29.83,NNW,346,7.0,13.0,57,0.00,,,0.00,,2013-03-17 07:12:00,
2013-03-17 03:22:00,25.0,12.0,29.83,NNW,336,10.0,15.0,57,0.00,,,0.00,,2013-03-17 07:22:00,
2013-03-17 03:32:00,24.0,11.0,29.83,NNW,341,9.0,16.0,56,0.00,,,0.00,,2013-03-17 07:32:00,
2013-03-17 03:42:00,24.0,11.0,29.83,NNW,341,9.0,16.0,56,0.00,,,0.00,,2013-03-17 07:42:00,
2013-03-17 03:52:00,24.0,12.0,29.83,NNW,333,4.0,10.0,59,0.00,,,0.00,,2013-03-17 07:52:00,
2013-03-17 04:03:00,24.0,13.0,29.83,NNW,347,9.0,13.0,61,0.00,,,0.00,,2013-03-17 08:03:00,
2013-03-17 04:13:00,24.0,13.0,29.83,NNW,327,9.0,14.0,61,0.00,,,0.00,,2013-03-17 08:13:00,
2013-03-17 04:22:00,24.0,13.0,29.83,NNW,327,9.0,14.0,61,0.00,,,0.00,,2013-03-17 08:22:00,
2013-03-17 04:32:00,23.0,12.0,29.83,NNW,341,7.0,14.0,62,0.00,,,0.00,,2013-03-17 08:32:00,
2013-03-17 04:42:00,23.0,12.0,29.83,NNW,341,7.0,14.0,62,0.00,,,0.00,,2013-03-17 08:42:00,
2013-03-17 04:52:00,23.0,11.0,29.83,NW,306,8.0,14.0,60,0.00,,,0.00,,2013-03-17 08:52:00,
2013-03-17 05:03:00,23.0,11.0,29.83,NNW,342,8.0,16.0,59,0.00,,,0.00,,2013-03-17 09:03:00,
2013-03-17 05:12:00,23.0,11.0,29.83,NNW,342,8.0,16.0,59,0.00,,,0.00,,2013-03-17 09:12:00,
2013-03-17 05:22:00,23.0,11.0,29.84,NNW,346,7.0,13.0,60,0.00,,,0.00,,2013-03-17 09:22:00,
2013-03-17 05:32:00,22.0,11.0,29.84,NNW,338,5.0,10.0,62,0.00,,,0.00,,2013-03-17 09:32:00,
2013-03-17 05:43:00,22.0,11.0,29.84,NNW,338,5.0,10.0,62,0.00,,,0.00,,2013-03-17 09:43:00,
2013-03-17 05:53:00,22.0,12.0,29.85,NNW,329,2.0,7.0,65,0.00,,,0.00,,2013-03-17 09:53:00,
2013-03-17 06:03:00,23.0,13.0,29.86,NW,326,10.0,15.0,64,0.00,,,0.00,,2013-03-17 10:03:00,
2013-03-17 06:13:00,23.0,13.0,29.86,NW,326,10.0,15.0,64,0.00,,,0.00,,2013-03-17 10:13:00,
2013-03-17 06:23:00,23.0,13.0,29.86,NNW,329,7.0,14.0,65,0.00,,,0.00,,2013-03-17 10:23:00,
2013-03-17 06:33:00,22.0,13.0,29.86,NNW,346,5.0,12.0,67,0.00,,,0.00,,2013-03-17 10:33:00,
2013-03-17 06:42:00,22.0,13.0,29.86,NNW,346,5.0,12.0,67,0.00,,,0.00,,2013-03-17 10:42:00,
2013-03-17 06:52:00,22.0,13.0,29.86,NW,326,7.0,12.0,68,0.00,,,0.00,,2013-03-17 10:52:00,
2013-03-17 07:02:00,22.0,13.0,29.87,NNW,340,2.0,11.0,68,0.00,,,0.00,,2013-03-17 11:02:00,
2013-03-17 07:12:00,22.0,13.0,29.87,NNW,340,2.0,11.0,68,0.00,,,0.00,,2013-03-17 11:12:00,
2013-03-17 07:22:00,22.0,13.0,29.86,NW,325,0.0,6.0,68,0.00,,,0.00,,2013-03-17 11:22:00,
2013-03-17 07:32:00,22.0,13.0,29.86,NNW,342,6.0,9.0,68,0.00,,,0.00,,2013-03-17 11:32:00,
2013-03-17 07:42:00,22.0,13.0,29.86,NNW,342,6.0,9.0,68,0.00,,,0.00,,2013-03-17 11:42:00,
2013-03-17 07:52:00,22.0,13.0,29.87,NNW,342,1.0,10.0,67,0.00,,,0.00,,2013-03-17 11:52:00,
2013-03-17 08:02:00,23.0,13.0,29.86,NNW,344,1.0,8.0,66,0.00,,,0.00,,2013-03-17 12:02:00,
2013-03-17 08:12:00,23.0,13.0,29.86,NNW,344,1.0,8.0,66,0.00,,,0.00,,2013-03-17 12:12:00,
2013-03-17 08:22:00,23.0,13.0,29.87,NNW,345,2.0,8.0,66,0.00,,,0.00,,2013-03-17 12:22:00,
2013-03-17 08:33:00,23.0,13.0,29.87,NW,322,4.0,12.0,64,0.00,,,0.00,,2013-03-17 12:33:00,
2013-03-17 08:43:00,23.0,13.0,29.87,NW,322,4.0,12.0,64,0.00,,,0.00,,2013-03-17 12:43:00,
2013-03-17 08:52:00,24.0,14.0,29.87,WNW,295,7.0,13.0,65,0.00,,,0.00,,2013-03-17 12:52:00,
2013-03-17 09:02:00,24.0,13.0,29.87,WNW,290,10.0,15.0,63,0.00,,,0.00,,2013-03-17 13:02:00,
2013-03-17 09:13:00,24.0,13.0,29.87,WNW,290,10.0,15.0,63,0.00,,,0.00,,2013-03-17 13:13:00,
2013-03-17 09:22:00,24.0,12.0,29.88,West,276,10.0,16.0,60,0.00,,,0.00,,2013-03-17 13:22:00,
2013-03-17 09:32:00,24.0,11.0,29.88,NW,315,8.0,18.0,58,0.00,,,0.00,,2013-03-17 13:32:00,
2013-03-17 09:42:00,24.0,11.0,29.88,NW,315,8.0,18.0,58,0.00,,,0.00,,2013-03-17 13:42:00,
2013-03-17 09:52:00,25.0,12.0,29.89,WNW,295,8.0,15.0,57,0.00,,,0.00,,2013-03-17 13:52:00,
2013-03-17 10:02:00,25.0,11.0,29.89,West,273,11.0,20.0,55,0.00,,,0.00,,2013-03-17 14:02:00,
2013-03-17 10:12:00,25.0,11.0,29.89,West,273,11.0,20.0,55,0.00,,,0.00,,2013-03-17 14:12:00,
2013-03-17 10:22:00,25.0,11.0,29.89,West,276,11.0,18.0,54,0.00,,,0.00,,2013-03-17 14:22:00,
2013-03-17 10:32:00,26.0,12.0,29.89,WNW,295,14.0,19.0,55,0.00,,,0.00,,2013-03-17 14:32:00,
2013-03-17 10:42:00,26.0,12.0,29.89,WNW,295,14.0,19.0,55,0.00,,,0.00,,2013-03-17 14:42:00,
2013-03-17 10:53:00,26.0,11.0,29.88,WNW,294,10.0,21.0,53,0.00,,,0.00,,2013-03-17 14:53:00,
2013-03-17 11:02:00,27.0,11.0,29.88,West,280,11.0,17.0,51,0.00,,,0.00,,2013-03-17 15:02:00,
2013-03-17 11:12:00,27.0,11.0,29.88,West,280,11.0,17.0,51,0.00,,,0.00,,2013-03-17 15:12:00,
2013-03-17 11:23:00,27.0,11.0,29.89,NW,306,13.0,22.0,51,0.00,,,0.00,,2013-03-17 15:23:00,
2013-03-17 11:33:00,28.0,12.0,29.89,NW,314,10.0,24.0,51,0.00,,,0.00,,2013-03-17 15:33:00,
2013-03-17 11:43:00,28.0,12.0,29.89,NW,314,10.0,24.0,51,0.00,,,0.00,,2013-03-17 15:43:00,
2013-03-17 11:53:00,28.0,11.0,29.88,WNW,286,18.0,26.0,48,0.00,,,0.00,,2013-03-17 15:53:00,
2013-03-17 12:03:00,29.0,11.0,29.88,WNW,287,17.0,26.0,46,0.00,,,0.00,,2013-03-17 16:03:00,
2013-03-17 12:12:00,29.0,11.0,29.88,WNW,287,17.0,26.0,46,0.00,,,0.00,,2013-03-17 16:12:00,
2013-03-17 12:23:00,28.0,9.0,29.89,WNW,289,15.0,24.0,45,0.00,,,0.00,,2013-03-17 16:23:00,
2013-03-17 12:33:00,29.0,12.0,29.89,NW,313,13.0,24.0,49,0.00,,,0.00,,2013-03-17 16:33:00,
2013-03-17 12:43:00,29.0,12.0,29.89,NW,313,13.0,24.0,49,0.00,,,0.00,,2013-03-17 16:43:00,
2013-03-17 12:52:00,29.0,11.0,29.89,WNW,296,18.0,26.0,47,0.00,,,0.00,,2013-03-17 16:52:00,
2013-03-17 13:02:00,29.0,12.0,29.90,WNW,283,15.0,27.0,48,0.00,,,0.00,,2013-03-17 17:02:00,
2013-03-17 13:12:00,29.0,12.0,29.90,WNW,283,15.0,27.0,48,0.00,,,0.00,,2013-03-17 17:12:00,
2013-03-17 13:22:00,30.0,13.0,29.89,WNW,288,17.0,26.0,48,0.00,,,0.00,,2013-03-17 17:22:00,
2013-03-17 13:33:00,30.0,10.0,29.89,West,278,17.0,26.0,43,0.00,,,0.00,,2013-03-17 17:33:00,
2013-03-17 13:42:00,30.0,10.0,29.89,West,278,17.0,26.0,43,0.00,,,0.00,,2013-03-17 17:42:00,
2013-03-17 13:53:00,29.0,8.0,29.88,NW,315,22.0,30.0,41,0.00,,,0.00,,2013-03-17 17:53:00,
2013-03-17 14:02:00,28.0,8.0,29.89,West,279,20.0,31.0,43,0.00,,,0.00,,2013-03-17 18:02:00,
2013-03-17 14:12:00,28.0,8.0,29.89,West,279,20.0,31.0,43,0.00,,,0.00,,2013-03-17 18:12:00,
2013-03-17 14:22:00,29.0,9.0,29.90,NW,306,18.0,25.0,43,0.00,,,0.00,,2013-03-17 18:22:00,
2013-03-17 14:32:00,28.0,7.0,29.90,NW,310,22.0,29.0,41,0.00,,,0.00,,2013-03-17 18:32:00,
2013-03-17 14:42:00,28.0,7.0,29.90,NW,310,22.0,29.0,41,0.00,,,0.00,,2013-03-17 18:42:00,
2013-03-17 14:52:00,28.0,10.0,29.91,North,355,14.0,31.0,46,0.00,,,0.00,,2013-03-17 18:52:00,
2013-03-17 15:02:00,29.0,8.0,29.91,WNW,286,21.0,32.0,41,0.00,,,0.00,,2013-03-17 19:02:00,
2013-03-17 15:12:00,29.0,8.0,29.91,WNW,286,21.0,32.0,41,0.00,,,0.00,,2013-03-17 19:12:00,
2013-03-17 15:22:00,29.0,8.0,29.91,WNW,286,21.0,31.0,41,0.00,,,0.00,,2013-03-17 19:22:00,
2013-03-17 15:33:00,29.0,7.0,29.91,WNW,292,21.0,33.0,39,0.00,,,0.00,,2013-03-17 19:33:00,
2013-03-17 15:42:00,29.0,7.0,29.91,WNW,292,21.0,33.0,39,0.00,,,0.00,,2013-03-17 19:42:00,
2013-03-17 15:53:00,29.0,7.0,29.91,WNW,302,15.0,30.0,39,0.00,,,0.00,,2013-03-17 19:53:00,
2013-03-17 16:02:00,29.0,6.0,29.92,NW,309,19.0,33.0,37,0.00,,,0.00,,2013-03-17 20:02:00,
2013-03-17 16:12:00,29.0,6.0,29.92,NW,309,19.0,33.0,37,0.00,,,0.00,,2013-03-17 20:12:00,
2013-03-17 16:22:00,29.0,7.0,29.92,WNW,288,22.0,31.0,38,0.00,,,0.00,,2013-03-17 20:22:00,
2013-03-17 16:33:00,29.0,6.0,29.92,West,269,18.0,33.0,37,0.00,,,0.00,,2013-03-17 20:33:00,
2013-03-17 16:42:00,29.0,6.0,29.92,West,269,18.0,33.0,37,0.00,,,0.00,,2013-03-17 20:42:00,
2013-03-17 16:52:00,29.0,7.0,29.93,NNW,333,22.0,33.0,39,0.00,,,0.00,,2013-03-17 20:52:00,
2013-03-17 17:03:00,29.0,9.0,29.94,NW,304,18.0,28.0,42,0.00,,,0.00,,2013-03-17 21:03:00,
2013-03-17 17:12:00,29.0,9.0,29.94,NW,304,18.0,28.0,42,0.00,,,0.00,,2013-03-17 21:12:00,
2013-03-17 17:22:00,28.0,6.0,29.95,NW,308,20.0,33.0,39,0.00,,,0.00,,2013-03-17 21:22:00,
2013-03-17 17:33:00,28.0,3.0,29.96,NW,311,18.0,31.0,34,0.00,,,0.00,,2013-03-17 21:33:00,
2013-03-17 17:43:00,28.0,3.0,29.96,NW,311,18.0,31.0,34,0.00,,,0.00,,2013-03-17 21:43:00,
2013-03-17 17:52:00,28.0,5.0,29.97,WNW,295,20.0,33.0,36,0.00,,,0.00,,2013-03-17 21:52:00,
2013-03-17 18:03:00,27.0,3.0,29.98,WNW,295,24.0,35.0,35,0.00,,,0.00,,2013-03-17 22:03:00,
2013-03-17 18:13:00,27.0,3.0,29.98,WNW,295,23.0,33.0,35,0.00,,,0.00,,2013-03-17 22:13:00,
2013-03-17 18:23:00,27.0,3.0,29.98,WNW,295,23.0,33.0,35,0.00,,,0.00,,2013-03-17 22:23:00,
2013-03-17 18:33:00,27.0,2.0,30.00,West,277,21.0,31.0,34,0.00,,,0.00,,2013-03-17 22:33:00,
2013-03-17 18:42:00,27.0,2.0,30.00,West,277,21.0,31.0,34,0.00,,,0.00,,2013-03-17 22:42:00,
2013-03-17 18:53:00,27.0,4.0,30.01,WNW,300,12.0,26.0,36,0.00,,,0.00,,2013-03-17 22:53:00,
2013-03-17 19:03:00,26.0,2.0,30.02,West,279,16.0,31.0,35,0.00,,,0.00,,2013-03-17 23:03:00,
2013-03-17 19:12:00,26.0,2.0,30.02,West,279,16.0,31.0,35,0.00,,,0.00,,2013-03-17 23:12:00,
2013-03-17 19:22:00,26.0,3.0,30.03,NW,311,17.0,32.0,36,0.00,,,0.00,,2013-03-17 23:22:00,
2013-03-17 19:33:00,25.0,3.0,30.05,NNW,327,16.0,28.0,38,0.00,,,0.00,,2013-03-17 23:33:00,
2013-03-17 19:42:00,25.0,3.0,30.05,NNW,327,16.0,28.0,38,0.00,,,0.00,,2013-03-17 23:42:00,
2013-03-17 19:53:00,24.0,2.0,30.06,NNW,328,17.0,27.0,38,0.00,,,0.00,,2013-03-17 23:53:00,
2013-03-17 20:03:00,24.0,2.0,30.08,NW,319,17.0,30.0,37,0.00,,,0.00,,2013-03-18 00:03:00,
2013-03-17 20:12:00,24.0,2.0,30.08,NW,319,17.0,30.0,37,0.00,,,0.00,,2013-03-18 00:12:00,
2013-03-17 20:22:00,23.0,2.0,30.09,NNW,348,16.0,26.0,39,0.00,,,0.00,,2013-03-18 00:22:00,
2013-03-17 20:33:00,23.0,3.0,30.11,NNW,329,18.0,28.0,41,0.00,,,0.00,,2013-03-18 00:33:00,
2013-03-17 20:42:00,23.0,3.0,30.11,NNW,329,18.0,28.0,41,0.00,,,0.00,,2013-03-18 00:42:00,
2013-03-17 20:53:00,23.0,4.0,30.12,NNW,328,17.0,29.0,44,0.00,,,0.00,,2013-03-18 00:53:00,
2013-03-17 21:02:00,22.0,3.0,30.13,NNW,327,18.0,28.0,44,0.00,,,0.00,,2013-03-18 01:02:00,
2013-03-17 21:12:00,22.0,3.0,30.13,NNW,327,18.0,28.0,44,0.00,,,0.00,,2013-03-18 01:12:00,
2013-03-17 21:22:00,22.0,2.0,30.14,NW,304,19.0,30.0,42,0.00,,,0.00,,2013-03-18 01:22:00,
2013-03-17 21:32:00,22.0,3.0,30.16,WNW,303,21.0,30.0,44,0.00,,,0.00,,2013-03-18 01:32:00,
2013-03-17 21:42:00,22.0,3.0,30.16,WNW,303,21.0,30.0,44,0.00,,,0.00,,2013-03-18 01:42:00,
2013-03-17 21:52:00,21.0,2.0,30.16,NNW,335,17.0,31.0,42,0.00,,,0.00,,2013-03-18 01:52:00,
2013-03-17 22:02:00,21.0,3.0,30.17,NNW,329,15.0,27.0,44,0.00,,,0.00,,2013-03-18 02:02:00,
2013-03-17 22:12:00,21.0,3.0,30.17,NNW,329,15.0,27.0,44,0.00,,,0.00,,2013-03-18 02:12:00,
2013-03-17 22:22:00,21.0,3.0,30.19,WNW,285,17.0,31.0,44,0.00,,,0.00,,2013-03-18 02:22:00,
2013-03-17 22:32:00,21.0,2.0,30.19,NW,306,20.0,33.0,43,0.00,,,0.00,,2013-03-18 02:32:00,
2013-03-17 22:42:00,21.0,2.0,30.19,NW,306,20.0,33.0,43,0.00,,,0.00,,2013-03-18 02:42:00,
2013-03-17 22:52:00,20.0,1.0,30.20,NW,319,20.0,33.0,43,0.00,,,0.00,,2013-03-18 02:52:00,
2013-03-17 23:03:00,20.0,1.0,30.20,NNW,329,19.0,27.0,42,0.00,,,0.00,,2013-03-18 03:03:00,
2013-03-17 23:12:00,20.0,1.0,30.20,NNW,329,19.0,27.0,42,0.00,,,0.00,,2013-03-18 03:12:00,
2013-03-17 23:22:00,20.0,1.0,30.21,NW,311,19.0,33.0,42,0.00,,,0.00,,2013-03-18 03:22:00,
2013-03-17 23:33:00,20.0,1.0,30.21,WNW,303,20.0,39.0,42,0.00,,,0.00,,2013-03-18 03:33:00,
2013-03-17 23:42:00,20.0,1.0,30.21,WNW,303,20.0,39.0,42,0.00,,,0.00,,2013-03-18 03:42:00,
2013-03-17 23:53:00,19.0,-1.0,30.22,NNW,329,20.0,30.0,41,0.00,,,0.00,,2013-03-18 03:53:00,